Gesamt
Enua Airport (Atiu (Enua Manu)) AIU Wetter
|
Atiu (Enua Manu) (AIU / NCAT)
Klarer Himmel
Windstill |
|
24 °C |
There is no TAF data available at AIU or any nearby airports.
Kürzlicher METAR-Verlauf für AIU
| Date | Time (-10) | Flight Rules | Wind Dir. | Speed | Type | Height AGL (ft) | Visibility | Temp (°C) | Temp (°F) | Dew Point (°C) | Dew Point (°F) | Rel. Humid. | Pressure | Density Altitude | Remarks |
|---|---|---|---|---|---|---|---|---|---|---|---|---|---|---|---|
| 05-Sep | 20:00 | n/a | 20° | 1 kt | Missing | 24° | 75° | 23° | 73° | 94% | 1013 mb | 1.137 ft | |||
| 05-Sep | 19:30 | n/a | 20° | 2 kt | Missing | 24° | 75° | 22° | 71° | 89% | 1013 mb | 1.137 ft | |||
| 05-Sep | 19:00 | n/a | 60° | 2 kt | Missing | 24° | 75° | 22° | 71° | 89% | 1013 mb | 1.137 ft | |||
| 05-Sep | 18:30 | n/a | 30° | 3 kt | Missing | 24° | 75° | 22° | 71° | 89% | 1012 mb | 1.167 ft | |||
| 05-Sep | 18:00 | n/a | 40° | 3 kt | Missing | 25° | 77° | 22° | 71° | 83% | 1012 mb | 1.287 ft | |||
| 05-Sep | 17:30 | n/a | 40° | 3 kt | Missing | 25° | 77° | 23° | 73° | 89% | 1012 mb | 1.287 ft | |||
| 05-Sep | 17:00 | n/a | 40° | 4 kt | Missing | 25° | 77° | 23° | 73° | 89% | 1012 mb | 1.287 ft | |||
| 05-Sep | 16:30 | n/a | 40° | 4 kt | Missing | 26° | 78° | 23° | 73° | 84% | 1011 mb | 1.436 ft | |||
| 05-Sep | 16:00 | n/a | 50° | 4 kt | Missing | 26° | 78° | 23° | 73° | 84% | 1011 mb | 1.436 ft | |||
| 05-Sep | 15:30 | n/a | 30° | 4 kt | Missing | 26° | 78° | 23° | 73° | 84% | 1011 mb | 1.436 ft | |||
| 05-Sep | 15:00 | n/a | 40° | 5 kt | Missing | 26° | 78° | 23° | 73° | 84% | 1012 mb | 1.407 ft | |||
| 05-Sep | 14:30 | n/a | 30° | 4 kt | Missing | 26° | 78° | 23° | 73° | 84% | 1012 mb | 1.407 ft | |||
| 05-Sep | 14:00 | n/a | 30° | 6 kt | Missing | 26° | 78° | 23° | 73° | 84% | 1012 mb | 1.407 ft | |||
| 05-Sep | 13:30 | n/a | 30° | 6 kt | Missing | 26° | 78° | 23° | 73° | 84% | 1013 mb | 1.377 ft | |||
| 05-Sep | 13:00 | n/a | 40° | 6 kt | Missing | 26° | 78° | 23° | 73° | 84% | 1013 mb | 1.377 ft | |||
| 05-Sep | 12:30 | n/a | 30° | 5 kt | Missing | 27° | 80° | 23° | 73° | 79% | 1014 mb | 1.468 ft | |||
| 05-Sep | 12:00 | n/a | 40° | 6 kt | Missing | 27° | 80° | 23° | 73° | 79% | 1014 mb | 1.468 ft | |||
| 05-Sep | 11:30 | n/a | 40° | 5 kt | Missing | 27° | 80° | 22° | 71° | 74% | 1014 mb | 1.468 ft | |||
| 05-Sep | 11:00 | n/a | 50° | 6 kt | Missing | 26° | 78° | 22° | 71° | 79% | 1015 mb | 1.318 ft | |||
| 05-Sep | 10:30 | n/a | 20° | 6 kt | Missing | 26° | 78° | 22° | 71° | 79% | 1015 mb | 1.318 ft | |||
| 05-Sep | 10:00 | n/a | 20° | 4 kt | Missing | 26° | 78° | 22° | 71° | 79% | 1015 mb | 1.318 ft | |||
| 05-Sep | 09:30 | n/a | 40° | 5 kt | Missing | 26° | 78° | 22° | 71° | 79% | 1015 mb | 1.318 ft | |||
| 05-Sep | 09:00 | n/a | 30° | 6 kt | Missing | 25° | 77° | 22° | 71° | 83% | 1015 mb | 1.198 ft | |||
| 05-Sep | 08:30 | n/a | 40° | 5 kt | Missing | 25° | 77° | 22° | 71° | 83% | 1014 mb | 1.228 ft |
Anmelden
| Ihr Browser wird nicht unterstützt. aktualisieren Sie Ihren Browser |
